Watford City, ND

3:03 AM CDT on August 01, 2014 (GMT -0500)
Watford City (KS25) Elev 2110 ft | 47.80 °N, 103.26 °W | Change Station

Current weather conditions updated 28 minutes ago

Clear
Clear
61 °F
Feels Like 61 °F
N
4
Wind Variable Wind from East

Today is forecast to be Warmer than yesterday.

Today
High -- | Low -- °F
--% Chance of Precip.
Yesterday
High -- | Low -- °F
Precip. -- in
6:29 AM 9:27 PM
Waxing Crescent, 24% visible
Pressure 30.03 in
Visibility 10.0 miles
Clouds Clear
Dew Point 57 °F
Humidity 88%
Rainfall 0.00 in
Snow Depth Not available.
UV 0 out of 12
Pollen 7.10 out of 12
Air Quality Not available.
Flu Activity Not available.
METAR KS25 010735Z AUTO 10003KT 10SM CLR 16/14 A3003 RMK AO2

More Conditions Fewer Conditions

Pressure 30.03 in
Visibility 10.0 miles
Clouds Clear
Dew Point 57 °F
Humidity 88%
Rainfall 0.00 in
Snow Depth Not available.
UV 0 out of 12
Pollen 7.10 out of 12
Air Quality Not available.
Flu Activity Not available.
METAR KS25 010735Z AUTO 10003KT 10SM CLR 16/14 A3003 RMK AO2

More Conditions Fewer Conditions

10-Day Weather Forecast

Almanac

Astronomy

Aug. 01, 2014 Rise Set
Actual Time 6:29 AM CDT 9:27 PM CDT
Civil Twilight 5:53 AM CDT 10:03 PM CDT
Nautical Twilight 5:06 AM CDT 10:50 PM CDT
Astronomical Twilight 4:10 AM CDT 11:46 PM CDT
Moon 12:23 PM CDT 11:44 PM CDT
Length of Visible Light 16h 10m
Length of Day
14h 57m
Tomorrow will be 2m 42s shorter.
Waxing Crescent, 24% of the Moon is Illuminated
Today
Waxing Crescent
Aug 3
First Quarter
Aug 10
Full
Aug 17
Last Quarter
Aug 25
New

Today's Extremes

State Highs State Lows

Community

WunderPhotos

Upload Photos

1,739,522 photos uploaded!

Nearby

Snow Depth

Station Depth Elevation
No new snow has been reported.

Earthquake Activity

City Distance Mag. Time & Date
No recent earthquake activity has been reported nearby.
Minimum magnitude displayed is 2.5.

Coastal Water Temperatures

Place Temperature
No Stations Reporting

Nearby Weather Stations

Station Location Temp. Dew Point Humidity Wind Precip. Elev Updated Type
RAWS WATFORD CITY ND, Watford City, ND 69 °F 58 °F 68% SE  at  13 mph 0.00 in / hr 2384 ft 1:49 AM CDT MADIS
Bison pasture GRASS, Alexander, ND 64.5 °F 58 °F 80% ESE  at  7.0 mph - / hr 2260 ft 1:50 AM MDT Normal

Show More Stations Show Fewer Stations